sensor_id;sensor_type;location;lat;lon;timestamp;P1;durP1;ratioP1;P2;durP2;ratioP2
68653;SDS011;55636;51.108;13.622;2023-02-15T00:00:13;35.20;;;23.53;;
68653;SDS011;55636;51.108;13.622;2023-02-15T00:01:16;31.10;;;21.53;;
68653;SDS011;55636;51.108;13.622;2023-02-15T00:02:18;31.53;;;21.80;;
68653;SDS011;55636;51.108;13.622;2023-02-15T00:03:21;34.97;;;21.87;;
68653;SDS011;55636;51.108;13.622;2023-02-15T00:04:24;31.30;;;21.77;;
68653;SDS011;55636;51.108;13.622;2023-02-15T00:05:47;31.33;;;21.07;;
68653;SDS011;55636;51.108;13.622;2023-02-15T00:06:49;31.97;;;21.53;;
68653;SDS011;55636;51.108;13.622;2023-02-15T00:07:51;34.30;;;21.67;;
68653;SDS011;55636;51.108;13.622;2023-02-15T00:08:54;30.60;;;21.27;;
68653;SDS011;55636;51.108;13.622;2023-02-15T00:09:57;31.53;;;20.77;;
68653;SDS011;55636;51.108;13.622;2023-02-15T00:11:06;34.33;;;21.97;;
68653;SDS011;55636;51.108;13.622;2023-02-15T00:12:15;31.10;;;21.63;;
68653;SDS011;55636;51.108;13.622;2023-02-15T00:13:18;31.13;;;20.40;;
68653;SDS011;55636;51.108;13.622;2023-02-15T00:14:22;30.03;;;21.30;;
68653;SDS011;55636;51.108;13.622;2023-02-15T00:15:25;31.03;;;20.50;;
68653;SDS011;55636;51.108;13.622;2023-02-15T00:16:27;30.03;;;20.30;;
68653;SDS011;55636;51.108;13.622;2023-02-15T00:17:30;28.73;;;20.53;;
68653;SDS011;55636;51.108;13.622;2023-02-15T00:18:32;32.00;;;21.43;;
68653;SDS011;55636;51.108;13.622;2023-02-15T00:19:35;31.00;;;21.67;;
68653;SDS011;55636;51.108;13.622;2023-02-15T00:20:37;28.83;;;20.63;;
68653;SDS011;55636;51.108;13.622;2023-02-15T00:21:39;29.80;;;20.40;;
68653;SDS011;55636;51.108;13.622;2023-02-15T00:22:42;30.57;;;21.00;;
68653;SDS011;55636;51.108;13.622;2023-02-15T00:23:44;31.80;;;21.13;;
68653;SDS011;55636;51.108;13.622;2023-02-15T00:24:47;30.07;;;19.83;;
68653;SDS011;55636;51.108;13.622;2023-02-15T00:25:49;32.67;;;21.40;;
68653;SDS011;55636;51.108;13.622;2023-02-15T00:26:53;29.97;;;20.67;;
68653;SDS011;55636;51.108;13.622;2023-02-15T00:27:55;30.37;;;21.03;;
68653;SDS011;55636;51.108;13.622;2023-02-15T00:28:58;30.80;;;20.50;;
68653;SDS011;55636;51.108;13.622;2023-02-15T00:30:01;30.77;;;20.47;;
68653;SDS011;55636;51.108;13.622;2023-02-15T00:31:08;31.87;;;21.03;;
68653;SDS011;55636;51.108;13.622;2023-02-15T00:32:13;29.97;;;19.87;;
68653;SDS011;55636;51.108;13.622;2023-02-15T00:33:17;30.67;;;20.33;;
68653;SDS011;55636;51.108;13.622;2023-02-15T00:34:21;28.23;;;19.57;;
68653;SDS011;55636;51.108;13.622;2023-02-15T00:35:25;30.10;;;20.93;;
68653;SDS011;55636;51.108;13.622;2023-02-15T00:36:28;31.23;;;20.87;;
68653;SDS011;55636;51.108;13.622;2023-02-15T00:37:31;31.23;;;20.67;;
68653;SDS011;55636;51.108;13.622;2023-02-15T00:38:33;30.60;;;20.30;;
68653;SDS011;55636;51.108;13.622;2023-02-15T00:39:36;28.13;;;19.37;;
68653;SDS011;55636;51.108;13.622;2023-02-15T00:40:40;29.47;;;20.27;;
68653;SDS011;55636;51.108;13.622;2023-02-15T00:41:42;30.30;;;20.30;;
68653;SDS011;55636;51.108;13.622;2023-02-15T00:42:45;31.03;;;20.63;;
68653;SDS011;55636;51.108;13.622;2023-02-15T00:43:49;29.63;;;19.97;;
68653;SDS011;55636;51.108;13.622;2023-02-15T00:44:51;30.03;;;20.43;;
68653;SDS011;55636;51.108;13.622;2023-02-15T00:45:55;30.07;;;20.60;;
68653;SDS011;55636;51.108;13.622;2023-02-15T00:46:57;28.93;;;19.80;;
68653;SDS011;55636;51.108;13.622;2023-02-15T00:48:00;30.83;;;20.33;;
68653;SDS011;55636;51.108;13.622;2023-02-15T00:49:02;30.07;;;19.87;;
68653;SDS011;55636;51.108;13.622;2023-02-15T00:50:05;30.13;;;20.67;;
68653;SDS011;55636;51.108;13.622;2023-02-15T00:51:08;29.23;;;20.30;;
68653;SDS011;55636;51.108;13.622;2023-02-15T00:52:10;31.03;;;20.77;;
68653;SDS011;55636;51.108;13.622;2023-02-15T00:53:13;31.53;;;21.53;;
68653;SDS011;55636;51.108;13.622;2023-02-15T00:54:15;29.53;;;20.30;;
68653;SDS011;55636;51.108;13.622;2023-02-15T00:55:17;31.07;;;20.80;;
68653;SDS011;55636;51.108;13.622;2023-02-15T00:56:20;31.90;;;21.43;;
68653;SDS011;55636;51.108;13.622;2023-02-15T00:57:23;27.77;;;19.57;;
68653;SDS011;55636;51.108;13.622;2023-02-15T00:58:26;29.57;;;20.10;;
68653;SDS011;55636;51.108;13.622;2023-02-15T00:59:28;28.80;;;18.53;;
68653;SDS011;55636;51.108;13.622;2023-02-15T01:00:31;28.10;;;19.80;;
68653;SDS011;55636;51.108;13.622;2023-02-15T01:01:33;31.40;;;21.00;;
68653;SDS011;55636;51.108;13.622;2023-02-15T01:02:35;32.63;;;20.73;;
68653;SDS011;55636;51.108;13.622;2023-02-15T01:03:37;32.63;;;19.70;;
68653;SDS011;55636;51.108;13.622;2023-02-15T01:04:40;28.50;;;19.97;;
68653;SDS011;55636;51.108;13.622;2023-02-15T01:05:42;30.13;;;20.07;;
68653;SDS011;55636;51.108;13.622;2023-02-15T01:06:44;27.47;;;18.77;;
68653;SDS011;55636;51.108;13.622;2023-02-15T01:07:47;28.30;;;19.37;;
68653;SDS011;55636;51.108;13.622;2023-02-15T01:08:52;32.33;;;19.47;;
68653;SDS011;55636;51.108;13.622;2023-02-15T01:09:54;29.07;;;19.40;;
68653;SDS011;55636;51.108;13.622;2023-02-15T01:10:56;29.97;;;19.67;;
68653;SDS011;55636;51.108;13.622;2023-02-15T01:12:04;30.33;;;18.67;;
68653;SDS011;55636;51.108;13.622;2023-02-15T01:13:07;27.13;;;19.40;;
68653;SDS011;55636;51.108;13.622;2023-02-15T01:14:09;27.47;;;18.53;;
68653;SDS011;55636;51.108;13.622;2023-02-15T01:15:13;30.37;;;19.60;;
68653;SDS011;55636;51.108;13.622;2023-02-15T01:16:15;28.27;;;19.63;;
68653;SDS011;55636;51.108;13.622;2023-02-15T01:17:18;30.33;;;19.23;;
68653;SDS011;55636;51.108;13.622;2023-02-15T01:18:20;27.63;;;19.87;;
68653;SDS011;55636;51.108;13.622;2023-02-15T01:19:23;27.97;;;19.10;;
68653;SDS011;55636;51.108;13.622;2023-02-15T01:20:26;27.80;;;18.87;;
68653;SDS011;55636;51.108;13.622;2023-02-15T01:21:29;27.30;;;19.00;;
68653;SDS011;55636;51.108;13.622;2023-02-15T01:22:32;28.03;;;18.90;;
68653;SDS011;55636;51.108;13.622;2023-02-15T01:23:35;28.00;;;18.47;;
68653;SDS011;55636;51.108;13.622;2023-02-15T01:24:39;29.00;;;18.87;;
68653;SDS011;55636;51.108;13.622;2023-02-15T01:25:42;27.47;;;19.60;;
68653;SDS011;55636;51.108;13.622;2023-02-15T01:26:45;27.73;;;18.93;;
68653;SDS011;55636;51.108;13.622;2023-02-15T01:27:47;28.13;;;19.23;;
68653;SDS011;55636;51.108;13.622;2023-02-15T01:28:49;29.57;;;19.13;;
68653;SDS011;55636;51.108;13.622;2023-02-15T01:29:52;29.73;;;18.93;;
68653;SDS011;55636;51.108;13.622;2023-02-15T01:30:56;28.67;;;19.03;;
68653;SDS011;55636;51.108;13.622;2023-02-15T01:31:58;27.90;;;19.10;;
68653;SDS011;55636;51.108;13.622;2023-02-15T01:33:01;26.27;;;18.43;;
68653;SDS011;55636;51.108;13.622;2023-02-15T01:34:05;27.33;;;18.37;;
68653;SDS011;55636;51.108;13.622;2023-02-15T01:35:08;28.50;;;19.40;;
68653;SDS011;55636;51.108;13.622;2023-02-15T01:36:11;28.10;;;18.33;;
68653;SDS011;55636;51.108;13.622;2023-02-15T01:37:13;28.07;;;18.60;;
68653;SDS011;55636;51.108;13.622;2023-02-15T01:38:16;26.83;;;18.07;;
68653;SDS011;55636;51.108;13.622;2023-02-15T01:39:18;28.20;;;18.87;;
68653;SDS011;55636;51.108;13.622;2023-02-15T01:40:20;29.30;;;18.60;;
68653;SDS011;55636;51.108;13.622;2023-02-15T01:41:23;27.23;;;18.60;;
68653;SDS011;55636;51.108;13.622;2023-02-15T01:42:26;26.93;;;17.43;;
68653;SDS011;55636;51.108;13.622;2023-02-15T01:43:39;27.50;;;19.17;;
68653;SDS011;55636;51.108;13.622;2023-02-15T01:45:58;28.43;;;18.40;;
68653;SDS011;55636;51.108;13.622;2023-02-15T01:47:02;27.57;;;17.87;;
68653;SDS011;55636;51.108;13.622;2023-02-15T01:48:17;26.87;;;18.17;;
68653;SDS011;55636;51.108;13.622;2023-02-15T01:49:23;26.73;;;18.20;;
68653;SDS011;55636;51.108;13.622;2023-02-15T01:50:36;26.40;;;17.97;;
68653;SDS011;55636;51.108;13.622;2023-02-15T01:51:44;25.60;;;17.33;;
68653;SDS011;55636;51.108;13.622;2023-02-15T01:53:06;27.73;;;18.43;;
68653;SDS011;55636;51.108;13.622;2023-02-15T01:54:27;24.60;;;17.03;;
68653;SDS011;55636;51.108;13.622;2023-02-15T01:55:34;27.47;;;17.80;;
68653;SDS011;55636;51.108;13.622;2023-02-15T01:56:41;29.03;;;18.60;;
68653;SDS011;55636;51.108;13.622;2023-02-15T01:57:44;29.43;;;18.10;;
68653;SDS011;55636;51.108;13.622;2023-02-15T01:58:49;26.83;;;18.03;;
68653;SDS011;55636;51.108;13.622;2023-02-15T01:59:56;28.27;;;18.07;;
68653;SDS011;55636;51.108;13.622;2023-02-15T02:01:13;26.93;;;17.23;;
68653;SDS011;55636;51.108;13.622;2023-02-15T02:02:16;26.40;;;17.90;;
68653;SDS011;55636;51.108;13.622;2023-02-15T02:03:36;26.27;;;17.27;;
68653;SDS011;55636;51.108;13.622;2023-02-15T02:04:49;26.57;;;17.53;;
68653;SDS011;55636;51.108;13.622;2023-02-15T02:05:53;26.20;;;17.23;;
68653;SDS011;55636;51.108;13.622;2023-02-15T02:06:56;29.43;;;19.33;;
68653;SDS011;55636;51.108;13.622;2023-02-15T02:08:00;25.33;;;17.27;;
68653;SDS011;55636;51.108;13.622;2023-02-15T02:09:05;27.13;;;18.17;;
68653;SDS011;55636;51.108;13.622;2023-02-15T02:10:09;26.37;;;17.03;;
68653;SDS011;55636;51.108;13.622;2023-02-15T02:11:14;27.97;;;18.13;;
68653;SDS011;55636;51.108;13.622;2023-02-15T02:12:20;27.37;;;17.83;;
68653;SDS011;55636;51.108;13.622;2023-02-15T02:13:25;28.43;;;18.70;;
68653;SDS011;55636;51.108;13.622;2023-02-15T02:14:27;26.23;;;18.40;;
68653;SDS011;55636;51.108;13.622;2023-02-15T02:15:39;26.20;;;17.60;;
68653;SDS011;55636;51.108;13.622;2023-02-15T02:18:35;26.27;;;17.27;;
68653;SDS011;55636;51.108;13.622;2023-02-15T02:25:04;26.30;;;17.43;;
68653;SDS011;55636;51.108;13.622;2023-02-15T02:26:16;25.13;;;16.37;;
68653;SDS011;55636;51.108;13.622;2023-02-15T02:27:49;27.10;;;16.87;;
68653;SDS011;55636;51.108;13.622;2023-02-15T02:32:02;26.23;;;16.63;;
68653;SDS011;55636;51.108;13.622;2023-02-15T02:33:13;26.00;;;17.00;;
68653;SDS011;55636;51.108;13.622;2023-02-15T02:34:29;26.33;;;17.13;;
68653;SDS011;55636;51.108;13.622;2023-02-15T02:35:49;28.60;;;17.93;;
68653;SDS011;55636;51.108;13.622;2023-02-15T02:37:03;25.53;;;17.07;;
68653;SDS011;55636;51.108;13.622;2023-02-15T02:39:28;25.70;;;17.13;;
68653;SDS011;55636;51.108;13.622;2023-02-15T02:42:18;29.03;;;16.93;;
68653;SDS011;55636;51.108;13.622;2023-02-15T02:43:40;25.17;;;16.50;;
68653;SDS011;55636;51.108;13.622;2023-02-15T02:46:14;28.30;;;17.90;;
68653;SDS011;55636;51.108;13.622;2023-02-15T02:47:26;26.90;;;17.30;;
68653;SDS011;55636;51.108;13.622;2023-02-15T02:48:35;25.80;;;17.40;;
68653;SDS011;55636;51.108;13.622;2023-02-15T02:49:40;27.47;;;17.60;;
68653;SDS011;55636;51.108;13.622;2023-02-15T02:50:44;27.23;;;16.67;;
68653;SDS011;55636;51.108;13.622;2023-02-15T02:51:46;28.23;;;17.93;;
68653;SDS011;55636;51.108;13.622;2023-02-15T02:52:49;25.70;;;18.00;;
68653;SDS011;55636;51.108;13.622;2023-02-15T02:53:56;27.73;;;18.03;;
68653;SDS011;55636;51.108;13.622;2023-02-15T02:55:07;25.43;;;16.97;;
68653;SDS011;55636;51.108;13.622;2023-02-15T02:56:35;27.13;;;18.60;;
68653;SDS011;55636;51.108;13.622;2023-02-15T02:58:04;26.20;;;17.07;;
68653;SDS011;55636;51.108;13.622;2023-02-15T02:59:16;27.77;;;16.97;;
68653;SDS011;55636;51.108;13.622;2023-02-15T03:00:23;25.03;;;17.07;;
68653;SDS011;55636;51.108;13.622;2023-02-15T03:01:46;27.87;;;17.67;;
68653;SDS011;55636;51.108;13.622;2023-02-15T03:03:20;24.70;;;16.53;;
68653;SDS011;55636;51.108;13.622;2023-02-15T03:04:31;27.20;;;17.40;;
68653;SDS011;55636;51.108;13.622;2023-02-15T03:05:39;27.60;;;17.10;;
68653;SDS011;55636;51.108;13.622;2023-02-15T03:08:00;25.63;;;17.00;;
68653;SDS011;55636;51.108;13.622;2023-02-15T03:09:12;28.80;;;19.00;;
68653;SDS011;55636;51.108;13.622;2023-02-15T03:10:22;25.90;;;17.20;;
68653;SDS011;55636;51.108;13.622;2023-02-15T03:11:25;26.17;;;17.20;;
68653;SDS011;55636;51.108;13.622;2023-02-15T03:12:35;26.70;;;16.93;;
68653;SDS011;55636;51.108;13.622;2023-02-15T03:13:39;25.80;;;17.07;;
68653;SDS011;55636;51.108;13.622;2023-02-15T03:14:47;26.30;;;16.67;;
68653;SDS011;55636;51.108;13.622;2023-02-15T03:15:52;26.93;;;16.97;;
68653;SDS011;55636;51.108;13.622;2023-02-15T03:17:13;25.93;;;16.90;;
68653;SDS011;55636;51.108;13.622;2023-02-15T03:18:20;27.27;;;17.87;;
68653;SDS011;55636;51.108;13.622;2023-02-15T03:19:30;26.30;;;17.17;;
68653;SDS011;55636;51.108;13.622;2023-02-15T03:20:36;26.13;;;16.67;;
68653;SDS011;55636;51.108;13.622;2023-02-15T03:21:50;27.50;;;17.17;;
68653;SDS011;55636;51.108;13.622;2023-02-15T03:23:10;26.00;;;17.00;;
68653;SDS011;55636;51.108;13.622;2023-02-15T03:24:20;27.00;;;16.63;;
68653;SDS011;55636;51.108;13.622;2023-02-15T03:25:31;25.00;;;16.43;;
68653;SDS011;55636;51.108;13.622;2023-02-15T03:26:36;26.93;;;16.50;;
68653;SDS011;55636;51.108;13.622;2023-02-15T03:27:45;26.80;;;16.73;;
68653;SDS011;55636;51.108;13.622;2023-02-15T03:28:52;24.63;;;15.87;;
68653;SDS011;55636;51.108;13.622;2023-02-15T03:30:01;25.07;;;16.40;;
68653;SDS011;55636;51.108;13.622;2023-02-15T03:31:05;28.13;;;17.53;;
68653;SDS011;55636;51.108;13.622;2023-02-15T03:32:10;27.37;;;17.03;;
68653;SDS011;55636;51.108;13.622;2023-02-15T03:33:14;25.33;;;17.03;;
68653;SDS011;55636;51.108;13.622;2023-02-15T03:34:17;25.87;;;17.07;;
68653;SDS011;55636;51.108;13.622;2023-02-15T03:35:21;25.70;;;16.60;;
68653;SDS011;55636;51.108;13.622;2023-02-15T03:36:39;23.73;;;15.60;;
68653;SDS011;55636;51.108;13.622;2023-02-15T03:37:48;26.50;;;16.70;;
68653;SDS011;55636;51.108;13.622;2023-02-15T03:38:58;25.03;;;16.27;;
68653;SDS011;55636;51.108;13.622;2023-02-15T03:41:58;26.43;;;16.63;;
68653;SDS011;55636;51.108;13.622;2023-02-15T03:44:29;23.77;;;15.83;;
68653;SDS011;55636;51.108;13.622;2023-02-15T03:45:33;25.50;;;16.20;;
68653;SDS011;55636;51.108;13.622;2023-02-15T03:46:44;25.90;;;17.13;;
68653;SDS011;55636;51.108;13.622;2023-02-15T03:47:54;24.17;;;16.30;;
68653;SDS011;55636;51.108;13.622;2023-02-15T03:49:04;25.33;;;16.97;;
68653;SDS011;55636;51.108;13.622;2023-02-15T03:50:24;25.47;;;16.00;;
68653;SDS011;55636;51.108;13.622;2023-02-15T03:51:51;26.10;;;15.87;;
68653;SDS011;55636;51.108;13.622;2023-02-15T03:52:57;24.47;;;15.47;;
68653;SDS011;55636;51.108;13.622;2023-02-15T03:54:18;26.00;;;16.90;;
68653;SDS011;55636;51.108;13.622;2023-02-15T03:55:46;25.47;;;16.33;;
68653;SDS011;55636;51.108;13.622;2023-02-15T03:56:50;26.70;;;16.50;;
68653;SDS011;55636;51.108;13.622;2023-02-15T03:58:12;25.07;;;15.67;;
68653;SDS011;55636;51.108;13.622;2023-02-15T03:59:33;25.03;;;15.93;;
68653;SDS011;55636;51.108;13.622;2023-02-15T04:00:55;28.73;;;17.13;;
68653;SDS011;55636;51.108;13.622;2023-02-15T04:02:23;23.83;;;15.73;;
68653;SDS011;55636;51.108;13.622;2023-02-15T04:03:39;25.80;;;15.87;;
68653;SDS011;55636;51.108;13.622;2023-02-15T04:04:45;24.90;;;15.83;;
68653;SDS011;55636;51.108;13.622;2023-02-15T04:05:49;23.20;;;15.83;;
68653;SDS011;55636;51.108;13.622;2023-02-15T04:06:51;26.20;;;15.93;;
68653;SDS011;55636;51.108;13.622;2023-02-15T04:07:53;26.40;;;16.17;;
68653;SDS011;55636;51.108;13.622;2023-02-15T04:08:56;24.07;;;16.07;;
68653;SDS011;55636;51.108;13.622;2023-02-15T04:10:17;25.20;;;16.90;;
68653;SDS011;55636;51.108;13.622;2023-02-15T04:11:38;24.97;;;16.17;;
68653;SDS011;55636;51.108;13.622;2023-02-15T04:12:40;26.10;;;15.80;;
68653;SDS011;55636;51.108;13.622;2023-02-15T04:13:43;25.77;;;16.23;;
68653;SDS011;55636;51.108;13.622;2023-02-15T04:14:46;25.90;;;15.80;;
68653;SDS011;55636;51.108;13.622;2023-02-15T04:16:12;23.43;;;15.23;;
68653;SDS011;55636;51.108;13.622;2023-02-15T04:17:14;22.73;;;15.50;;
68653;SDS011;55636;51.108;13.622;2023-02-15T04:18:17;24.60;;;16.27;;
68653;SDS011;55636;51.108;13.622;2023-02-15T04:19:19;23.87;;;15.27;;
68653;SDS011;55636;51.108;13.622;2023-02-15T04:20:44;21.90;;;14.43;;
68653;SDS011;55636;51.108;13.622;2023-02-15T04:22:07;24.70;;;15.27;;
68653;SDS011;55636;51.108;13.622;2023-02-15T04:23:27;23.60;;;14.60;;
68653;SDS011;55636;51.108;13.622;2023-02-15T04:24:48;23.10;;;14.33;;
68653;SDS011;55636;51.108;13.622;2023-02-15T04:26:08;23.07;;;14.20;;
68653;SDS011;55636;51.108;13.622;2023-02-15T04:27:10;22.80;;;14.80;;
68653;SDS011;55636;51.108;13.622;2023-02-15T04:28:13;23.57;;;15.10;;
68653;SDS011;55636;51.108;13.622;2023-02-15T04:29:15;24.43;;;15.53;;
68653;SDS011;55636;51.108;13.622;2023-02-15T04:30:18;22.83;;;14.60;;
68653;SDS011;55636;51.108;13.622;2023-02-15T04:31:22;22.50;;;15.07;;
68653;SDS011;55636;51.108;13.622;2023-02-15T04:32:24;22.77;;;15.00;;
68653;SDS011;55636;51.108;13.622;2023-02-15T04:33:28;23.43;;;14.30;;
68653;SDS011;55636;51.108;13.622;2023-02-15T04:34:30;20.67;;;13.83;;
68653;SDS011;55636;51.108;13.622;2023-02-15T04:35:35;22.07;;;14.03;;
68653;SDS011;55636;51.108;13.622;2023-02-15T04:36:37;18.97;;;13.87;;
68653;SDS011;55636;51.108;13.622;2023-02-15T04:37:41;20.57;;;14.20;;
68653;SDS011;55636;51.108;13.622;2023-02-15T04:38:44;19.97;;;13.80;;
68653;SDS011;55636;51.108;13.622;2023-02-15T04:39:46;21.10;;;14.30;;
68653;SDS011;55636;51.108;13.622;2023-02-15T04:40:50;20.73;;;14.27;;
68653;SDS011;55636;51.108;13.622;2023-02-15T04:41:53;19.97;;;13.70;;
68653;SDS011;55636;51.108;13.622;2023-02-15T04:42:56;22.50;;;14.37;;
68653;SDS011;55636;51.108;13.622;2023-02-15T04:43:59;20.37;;;13.53;;
68653;SDS011;55636;51.108;13.622;2023-02-15T04:45:02;20.10;;;13.03;;
68653;SDS011;55636;51.108;13.622;2023-02-15T04:46:05;20.37;;;13.57;;
68653;SDS011;55636;51.108;13.622;2023-02-15T04:47:07;23.00;;;14.93;;
68653;SDS011;55636;51.108;13.622;2023-02-15T04:48:10;22.40;;;13.90;;
68653;SDS011;55636;51.108;13.622;2023-02-15T04:49:12;20.90;;;13.77;;
68653;SDS011;55636;51.108;13.622;2023-02-15T04:50:14;20.80;;;13.63;;
68653;SDS011;55636;51.108;13.622;2023-02-15T04:51:16;20.97;;;13.67;;
68653;SDS011;55636;51.108;13.622;2023-02-15T04:52:19;19.80;;;13.13;;
68653;SDS011;55636;51.108;13.622;2023-02-15T04:53:21;20.63;;;13.43;;
68653;SDS011;55636;51.108;13.622;2023-02-15T04:54:23;22.17;;;13.63;;
68653;SDS011;55636;51.108;13.622;2023-02-15T04:55:25;21.67;;;13.63;;
68653;SDS011;55636;51.108;13.622;2023-02-15T04:56:28;20.30;;;13.03;;
68653;SDS011;55636;51.108;13.622;2023-02-15T04:57:32;21.30;;;14.17;;
68653;SDS011;55636;51.108;13.622;2023-02-15T04:58:34;20.90;;;13.40;;
68653;SDS011;55636;51.108;13.622;2023-02-15T04:59:38;21.27;;;13.47;;
68653;SDS011;55636;51.108;13.622;2023-02-15T05:00:40;18.53;;;13.17;;
68653;SDS011;55636;51.108;13.622;2023-02-15T05:01:42;22.17;;;14.00;;
68653;SDS011;55636;51.108;13.622;2023-02-15T05:02:46;20.20;;;13.83;;
68653;SDS011;55636;51.108;13.622;2023-02-15T05:03:48;23.73;;;14.53;;
68653;SDS011;55636;51.108;13.622;2023-02-15T05:04:50;19.20;;;13.00;;
68653;SDS011;55636;51.108;13.622;2023-02-15T05:05:55;21.30;;;13.27;;
68653;SDS011;55636;51.108;13.622;2023-02-15T05:06:57;20.87;;;13.60;;
68653;SDS011;55636;51.108;13.622;2023-02-15T05:07:59;19.73;;;13.63;;
68653;SDS011;55636;51.108;13.622;2023-02-15T05:09:02;21.47;;;13.70;;
68653;SDS011;55636;51.108;13.622;2023-02-15T05:10:05;19.97;;;13.53;;
68653;SDS011;55636;51.108;13.622;2023-02-15T05:11:07;20.40;;;13.63;;
68653;SDS011;55636;51.108;13.622;2023-02-15T05:12:10;20.53;;;13.10;;
68653;SDS011;55636;51.108;13.622;2023-02-15T05:13:12;18.97;;;13.53;;
68653;SDS011;55636;51.108;13.622;2023-02-15T05:14:14;19.47;;;13.37;;
68653;SDS011;55636;51.108;13.622;2023-02-15T05:15:17;21.37;;;13.80;;
68653;SDS011;55636;51.108;13.622;2023-02-15T05:16:19;20.90;;;14.03;;
68653;SDS011;55636;51.108;13.622;2023-02-15T05:17:21;20.27;;;13.37;;
68653;SDS011;55636;51.108;13.622;2023-02-15T05:18:25;20.77;;;13.23;;
68653;SDS011;55636;51.108;13.622;2023-02-15T05:19:27;19.40;;;13.80;;
68653;SDS011;55636;51.108;13.622;2023-02-15T05:20:30;20.53;;;13.87;;
68653;SDS011;55636;51.108;13.622;2023-02-15T05:21:34;21.80;;;13.90;;
68653;SDS011;55636;51.108;13.622;2023-02-15T05:22:36;20.63;;;13.87;;
68653;SDS011;55636;51.108;13.622;2023-02-15T05:23:38;22.17;;;13.73;;
68653;SDS011;55636;51.108;13.622;2023-02-15T05:24:40;21.00;;;13.40;;
68653;SDS011;55636;51.108;13.622;2023-02-15T05:26:01;20.07;;;12.90;;
68653;SDS011;55636;51.108;13.622;2023-02-15T05:27:22;20.13;;;12.13;;
68653;SDS011;55636;51.108;13.622;2023-02-15T05:28:43;18.37;;;12.83;;
68653;SDS011;55636;51.108;13.622;2023-02-15T05:29:45;21.10;;;13.27;;
68653;SDS011;55636;51.108;13.622;2023-02-15T05:30:50;21.57;;;13.33;;
68653;SDS011;55636;51.108;13.622;2023-02-15T05:32:03;19.67;;;13.53;;
68653;SDS011;55636;51.108;13.622;2023-02-15T05:33:06;20.43;;;13.70;;
68653;SDS011;55636;51.108;13.622;2023-02-15T05:34:09;20.40;;;13.17;;
68653;SDS011;55636;51.108;13.622;2023-02-15T05:35:12;19.93;;;13.23;;
68653;SDS011;55636;51.108;13.622;2023-02-15T05:36:17;22.47;;;14.03;;
68653;SDS011;55636;51.108;13.622;2023-02-15T05:37:20;21.20;;;13.13;;
68653;SDS011;55636;51.108;13.622;2023-02-15T05:38:24;19.13;;;13.23;;
68653;SDS011;55636;51.108;13.622;2023-02-15T05:39:26;18.13;;;13.00;;
68653;SDS011;55636;51.108;13.622;2023-02-15T05:40:30;19.70;;;13.20;;
68653;SDS011;55636;51.108;13.622;2023-02-15T05:41:32;19.73;;;13.20;;
68653;SDS011;55636;51.108;13.622;2023-02-15T05:42:34;21.33;;;13.57;;
68653;SDS011;55636;51.108;13.622;2023-02-15T05:43:37;20.20;;;13.73;;
68653;SDS011;55636;51.108;13.622;2023-02-15T05:44:40;21.07;;;13.60;;
68653;SDS011;55636;51.108;13.622;2023-02-15T05:45:49;19.97;;;13.07;;
68653;SDS011;55636;51.108;13.622;2023-02-15T05:46:52;19.33;;;13.13;;
68653;SDS011;55636;51.108;13.622;2023-02-15T05:47:55;19.80;;;13.50;;
68653;SDS011;55636;51.108;13.622;2023-02-15T05:48:57;20.67;;;13.60;;
68653;SDS011;55636;51.108;13.622;2023-02-15T05:49:59;19.07;;;13.40;;
68653;SDS011;55636;51.108;13.622;2023-02-15T05:52:05;22.47;;;13.00;;
68653;SDS011;55636;51.108;13.622;2023-02-15T05:53:07;20.17;;;13.47;;
68653;SDS011;55636;51.108;13.622;2023-02-15T05:54:10;20.67;;;13.17;;
68653;SDS011;55636;51.108;13.622;2023-02-15T05:55:12;21.60;;;14.33;;
68653;SDS011;55636;51.108;13.622;2023-02-15T05:56:15;21.73;;;14.47;;
68653;SDS011;55636;51.108;13.622;2023-02-15T05:57:17;21.93;;;14.17;;
68653;SDS011;55636;51.108;13.622;2023-02-15T05:58:19;21.60;;;14.30;;
68653;SDS011;55636;51.108;13.622;2023-02-15T05:59:22;21.70;;;14.37;;
68653;SDS011;55636;51.108;13.622;2023-02-15T06:00:24;22.13;;;14.63;;
68653;SDS011;55636;51.108;13.622;2023-02-15T06:01:27;23.60;;;15.63;;
68653;SDS011;55636;51.108;13.622;2023-02-15T06:02:32;24.10;;;15.10;;
68653;SDS011;55636;51.108;13.622;2023-02-15T06:03:36;23.53;;;15.93;;
68653;SDS011;55636;51.108;13.622;2023-02-15T06:04:38;23.47;;;15.60;;
68653;SDS011;55636;51.108;13.622;2023-02-15T06:05:40;23.13;;;15.60;;
68653;SDS011;55636;51.108;13.622;2023-02-15T06:06:43;23.33;;;15.80;;
68653;SDS011;55636;51.108;13.622;2023-02-15T06:07:45;22.67;;;15.70;;
68653;SDS011;55636;51.108;13.622;2023-02-15T06:08:47;23.67;;;16.13;;
68653;SDS011;55636;51.108;13.622;2023-02-15T06:09:50;21.10;;;14.70;;
68653;SDS011;55636;51.108;13.622;2023-02-15T06:10:52;23.23;;;15.30;;
68653;SDS011;55636;51.108;13.622;2023-02-15T06:11:54;21.83;;;15.40;;
68653;SDS011;55636;51.108;13.622;2023-02-15T06:12:57;22.00;;;15.43;;
68653;SDS011;55636;51.108;13.622;2023-02-15T06:14:01;21.53;;;14.83;;
68653;SDS011;55636;51.108;13.622;2023-02-15T06:15:03;22.37;;;15.13;;
68653;SDS011;55636;51.108;13.622;2023-02-15T06:16:06;21.63;;;14.70;;
68653;SDS011;55636;51.108;13.622;2023-02-15T06:17:09;20.27;;;13.97;;
68653;SDS011;55636;51.108;13.622;2023-02-15T06:18:11;19.87;;;13.97;;
68653;SDS011;55636;51.108;13.622;2023-02-15T06:19:14;16.70;;;12.93;;
68653;SDS011;55636;51.108;13.622;2023-02-15T06:20:18;21.20;;;14.00;;
68653;SDS011;55636;51.108;13.622;2023-02-15T06:21:22;21.50;;;13.20;;
68653;SDS011;55636;51.108;13.622;2023-02-15T06:22:24;20.30;;;13.57;;
68653;SDS011;55636;51.108;13.622;2023-02-15T06:23:26;19.00;;;12.83;;
68653;SDS011;55636;51.108;13.622;2023-02-15T06:24:29;20.50;;;13.27;;
68653;SDS011;55636;51.108;13.622;2023-02-15T06:25:33;19.50;;;13.50;;
68653;SDS011;55636;51.108;13.622;2023-02-15T06:26:37;22.20;;;13.47;;
68653;SDS011;55636;51.108;13.622;2023-02-15T06:27:41;18.10;;;12.90;;
68653;SDS011;55636;51.108;13.622;2023-02-15T06:28:44;19.80;;;13.40;;
68653;SDS011;55636;51.108;13.622;2023-02-15T06:29:46;19.47;;;13.47;;
68653;SDS011;55636;51.108;13.622;2023-02-15T06:30:48;20.10;;;13.37;;
68653;SDS011;55636;51.108;13.622;2023-02-15T06:31:51;17.47;;;12.70;;
68653;SDS011;55636;51.108;13.622;2023-02-15T06:32:54;21.43;;;12.87;;
68653;SDS011;55636;51.108;13.622;2023-02-15T06:33:56;16.17;;;11.80;;
68653;SDS011;55636;51.108;13.622;2023-02-15T06:35:03;18.63;;;12.37;;
68653;SDS011;55636;51.108;13.622;2023-02-15T06:36:05;19.40;;;12.87;;
68653;SDS011;55636;51.108;13.622;2023-02-15T06:37:08;20.43;;;13.07;;
68653;SDS011;55636;51.108;13.622;2023-02-15T06:38:10;21.67;;;13.77;;
68653;SDS011;55636;51.108;13.622;2023-02-15T06:39:12;18.03;;;12.33;;
68653;SDS011;55636;51.108;13.622;2023-02-15T06:40:15;19.57;;;12.67;;
68653;SDS011;55636;51.108;13.622;2023-02-15T06:41:18;17.50;;;12.53;;